Etusivu
METAR-TAF:

METAR-TAF

Lentoasemat :

Havre-Saint-Pierre, Quebec, Kanada

Leveyspiiri: 50-17N, Pituuspiiri: 063-37W, korkeus merenpinnasta: 33 m

Tämänhetkinen sää

Tämä raportti tehtiin 1 tunti ja 3 minuuttia sitten, kello 04.00 UTC
Tuuli 6 kn pohjoisen/luoteesta
Lämpötila 4°C
Kosteus 87%
Ilmanpaine 1014 hPa
Näkyvyys: 14.5 km
Muutamia pilviä 24000 ft:n korkeudessa

METAR: CYGV 250400Z AUTO 33006KT 9SM FEW240 04/02 A2993 RMK SLP137

Aika: 01:03 (05:03 UTC)

Sääennuste

Tämä raportti tehtiin 3 tuntia ja 25 minuuttia sitten, kello 01.38 UTC
Ennuste voimassa 25. päivästä klo 02 UTC - 25. päivään klo 14 UTC
Tuuli 5 kn lännestä/lounaasta
Näkyvyys: 10 km
Hajanaisia pilviä 24000 ft:n korkeudessa
Tulossa
25. päivästä klo 12 UTC - 25. päivään klo 14 UTC
Tuuli 8 kn lounaasta

TAF: CYGV 250138Z 2502/2514 24005KT P6SM SCT240 BECMG 2512/2514 22008KT RMK FCST BASED ON AUTO OBS. NXT FCST BY 250800Z

Säähavainnot ja -ennusteet yli 4000 lentoasemalta (METAR- ja TAF-raportit).

Käytössä olevat sääasemat on merkitty karttaan keltaisilla ja punaisilla pisteillä.

Aseta hiiri pisteen päälle nähdäksesi sääaseman nimen.

Klikkaa sitten nähdäksesi säähavainnot ja -ennusteet.

Kartan vaihtaminen: klikkaa mustalla rastilla varustettuja vihreitä pisteitä, niin voit zoomata sisään; viivalla varustettua vihreää pistettä, niin voit zoomata ulos tai vihreitä nuolia, niin pääset viereisille kartoille.


METAR-TAF: